createdAt,value
2023-04-17T00:01:14.980Z,14.53
2023-04-17T00:03:41.948Z,10.83
2023-04-17T00:06:09.090Z,12.47
2023-04-17T00:08:35.958Z,11.87
2023-04-17T00:11:07.566Z,14.43
2023-04-17T00:13:35.790Z,16.20
2023-04-17T00:16:02.977Z,10.93
2023-04-17T00:18:29.992Z,11.03
2023-04-17T00:20:57.250Z,12.13
2023-04-17T00:23:24.348Z,10.87
2023-04-17T00:25:51.155Z,12.27
2023-04-17T00:28:18.372Z,12.77
2023-04-17T00:30:45.214Z,12.87
2023-04-17T00:33:12.048Z,13.83
2023-04-17T00:35:38.900Z,13.17
2023-04-17T00:38:05.826Z,12.37
2023-04-17T00:40:32.606Z,13.60
2023-04-17T00:43:03.007Z,17.73
2023-04-17T00:45:30.736Z,14.17
2023-04-17T00:47:59.182Z,16.10
2023-04-17T00:50:29.277Z,16.40
2023-04-17T00:52:56.092Z,10.63
2023-04-17T00:55:22.938Z,15.13
2023-04-17T00:57:49.819Z,12.60
2023-04-17T01:00:18.147Z,14.33
2023-04-17T01:02:45.915Z,13.50
2023-04-17T01:05:13.019Z,12.77
2023-04-17T01:07:41.374Z,14.83
2023-04-17T01:10:08.537Z,17.43
2023-04-17T01:12:35.362Z,15.93
2023-04-17T01:15:02.405Z,15.60
2023-04-17T01:17:29.421Z,12.67
2023-04-17T01:19:57.373Z,14.77
2023-04-17T01:22:24.496Z,18.23
2023-04-17T01:24:51.317Z,18.43
2023-04-17T01:27:18.236Z,14.33
2023-04-17T01:29:45.442Z,18.83
2023-04-17T01:32:12.293Z,16.73
2023-04-17T01:34:39.101Z,21.23
2023-04-17T01:37:07.101Z,15.37
2023-04-17T01:39:33.986Z,26.53
2023-04-17T01:42:01.038Z,20.53
2023-04-17T01:44:27.932Z,23.73
2023-04-17T01:46:54.702Z,20.60
2023-04-17T01:49:21.530Z,18.17
2023-04-17T01:51:48.374Z,18.20
2023-04-17T01:54:18.113Z,25.33
2023-04-17T01:56:44.897Z,26.57
2023-04-17T01:59:11.925Z,25.63
2023-04-17T02:01:38.947Z,22.63
2023-04-17T02:04:05.853Z,22.10
2023-04-17T02:06:33.128Z,20.37
2023-04-17T02:08:59.925Z,22.33
2023-04-17T02:11:26.744Z,21.27
2023-04-17T02:13:53.739Z,22.83
2023-04-17T02:16:21.895Z,29.70
2023-04-17T02:18:49.951Z,26.03
2023-04-17T02:21:16.789Z,25.43
2023-04-17T02:23:43.912Z,25.87
2023-04-17T02:26:10.756Z,25.60
2023-04-17T02:28:37.572Z,28.10
2023-04-17T02:31:08.745Z,27.63
2023-04-17T02:33:36.865Z,28.97
2023-04-17T02:36:04.887Z,31.67
2023-04-17T02:38:31.840Z,30.63
2023-04-17T02:40:58.908Z,35.00
2023-04-17T02:43:25.740Z,34.17
2023-04-17T02:45:53.578Z,32.30
2023-04-17T02:48:20.366Z,38.03
2023-04-17T02:50:47.209Z,32.77
2023-04-17T02:53:14.009Z,39.37
2023-04-17T02:55:40.969Z,36.03
2023-04-17T02:58:08.275Z,38.60
2023-04-17T03:00:35.141Z,37.53
2023-04-17T03:03:03.425Z,39.30
2023-04-17T03:05:30.676Z,44.40
2023-04-17T03:08:00.460Z,41.60
2023-04-17T03:10:27.267Z,36.93
2023-04-17T03:12:54.327Z,37.83
2023-04-17T03:15:21.248Z,38.90
2023-04-17T03:17:48.073Z,39.43
2023-04-17T03:20:16.136Z,41.57
2023-04-17T03:22:43.053Z,39.50
2023-04-17T03:25:10.383Z,44.83
2023-04-17T03:27:38.710Z,43.27
2023-04-17T03:30:06.376Z,42.67
2023-04-17T03:32:33.352Z,50.77
2023-04-17T03:35:00.482Z,43.10
2023-04-17T03:37:27.288Z,45.87
2023-04-17T03:39:55.683Z,41.03
2023-04-17T03:42:22.492Z,39.07
2023-04-17T03:44:49.329Z,43.73
2023-04-17T03:47:16.149Z,42.07
2023-04-17T03:49:42.940Z,54.30
2023-04-17T03:52:09.793Z,48.80
2023-04-17T03:54:36.842Z,44.20
2023-04-17T03:57:03.933Z,48.93
2023-04-17T03:59:33.026Z,48.70
2023-04-17T04:02:00.152Z,52.23
2023-04-17T04:04:27.379Z,53.17
2023-04-17T04:06:57.541Z,50.97
2023-04-17T04:09:25.581Z,49.60
2023-04-17T04:11:52.430Z,44.20
2023-04-17T04:14:19.392Z,46.43
2023-04-17T04:16:47.221Z,51.10
2023-04-17T04:19:14.280Z,50.83
2023-04-17T04:21:42.334Z,59.27
2023-04-17T04:24:10.168Z,52.30
2023-04-17T04:26:38.009Z,54.93
2023-04-17T04:29:05.001Z,55.47
2023-04-17T04:31:32.225Z,54.77
2023-04-17T04:33:59.415Z,51.00
2023-04-17T04:36:30.160Z,53.93
2023-04-17T04:39:00.998Z,51.13
2023-04-17T04:41:30.163Z,49.90
2023-04-17T04:43:56.941Z,52.83
2023-04-17T04:46:23.787Z,51.60
2023-04-17T04:48:50.672Z,45.67
2023-04-17T04:51:19.193Z,53.07
2023-04-17T04:53:46.233Z,55.13
2023-04-17T04:56:14.014Z,47.83
2023-04-17T04:58:40.902Z,51.20
2023-04-17T05:01:07.778Z,46.83
2023-04-17T05:03:34.864Z,47.73
2023-04-17T05:06:01.896Z,47.77
2023-04-17T05:08:28.728Z,52.73
2023-04-17T05:10:55.824Z,47.93
2023-04-17T05:13:22.636Z,52.40
2023-04-17T05:15:49.595Z,47.63
2023-04-17T05:18:16.456Z,51.30
2023-04-17T05:20:43.281Z,48.10
2023-04-17T05:23:10.138Z,51.40
2023-04-17T05:25:36.997Z,50.90
2023-04-17T05:28:03.826Z,50.13
2023-04-17T05:30:30.706Z,53.97
2023-04-17T05:32:58.664Z,50.07
2023-04-17T05:35:25.854Z,50.60
2023-04-17T05:37:53.085Z,44.97
2023-04-17T05:40:20.005Z,46.03
2023-04-17T05:42:46.936Z,43.97
2023-04-17T05:45:14.636Z,55.03
2023-04-17T05:55:51.085Z,30.02
2023-04-17T06:02:09.138Z,53.78
2023-04-17T06:20:18.095Z,48.13
2023-04-17T06:26:36.781Z,37.85
2023-04-17T06:46:52.717Z,36.33
2023-04-17T07:05:01.274Z,42.97
2023-04-17T07:11:19.757Z,43.50
2023-04-17T07:29:27.390Z,48.75
2023-04-17T07:35:45.877Z,43.53
2023-04-17T07:53:56.048Z,43.90
2023-04-17T08:00:14.912Z,47.03
2023-04-17T08:18:22.202Z,43.42
2023-04-17T08:24:40.713Z,48.00
2023-04-17T08:42:48.331Z,51.70
2023-04-17T08:49:18.991Z,49.58
2023-04-17T09:07:30.746Z,40.90
2023-04-17T09:13:49.222Z,39.90
2023-04-17T09:32:14.203Z,37.05
2023-04-17T09:38:40.064Z,45.83
2023-04-17T09:56:49.930Z,38.50
2023-04-17T10:03:08.531Z,39.33
2023-04-17T10:21:22.069Z,42.45
2023-04-17T10:27:40.565Z,44.47
2023-04-17T10:46:02.676Z,36.22
2023-04-17T10:52:36.004Z,34.15
2023-04-17T11:11:01.136Z,43.10
2023-04-17T11:17:21.456Z,40.50
2023-04-17T11:35:30.500Z,39.00
2023-04-17T11:41:50.148Z,41.15
2023-04-17T11:59:57.926Z,40.28
2023-04-17T12:06:16.823Z,57.72
2023-04-17T12:24:25.235Z,39.72
2023-04-17T12:30:43.998Z,35.25
2023-04-17T12:48:58.318Z,45.08
2023-04-17T12:55:28.803Z,36.33
2023-04-17T13:13:36.249Z,38.70
2023-04-17T13:19:54.704Z,40.88
2023-04-17T13:40:46.151Z,49.05
2023-04-17T13:51:43.314Z,57.90
2023-04-17T14:02:30.878Z,48.35
2023-04-17T14:07:31.106Z,38.15
2023-04-17T14:17:04.198Z,61.55
2023-04-17T14:19:31.195Z,58.65
2023-04-17T14:21:58.014Z,58.03
2023-04-17T14:24:24.868Z,60.25
2023-04-17T14:26:51.767Z,54.53
2023-04-17T14:29:18.665Z,59.20
2023-04-17T14:31:46.016Z,54.75
2023-04-17T14:34:42.392Z,58.92
2023-04-17T14:37:11.720Z,59.22
2023-04-17T14:39:38.700Z,55.00
2023-04-17T14:47:41.152Z,49.47
2023-04-17T14:50:08.680Z,50.20
2023-04-17T14:52:35.470Z,48.90
2023-04-17T14:55:02.293Z,47.90
2023-04-17T14:57:46.679Z,48.33
2023-04-17T15:00:14.132Z,43.63
2023-04-17T15:02:48.890Z,50.55
2023-04-17T15:05:20.414Z,52.35
2023-04-17T15:07:47.578Z,50.00
2023-04-17T15:10:14.810Z,44.30
2023-04-17T15:15:10.914Z,45.47
2023-04-17T15:17:37.868Z,58.47
2023-04-17T15:20:05.853Z,46.93
2023-04-17T15:22:32.883Z,43.83
2023-04-17T15:24:59.737Z,43.77
2023-04-17T15:37:48.561Z,38.17
2023-04-17T15:40:16.763Z,41.57
2023-04-17T15:42:43.775Z,39.70
2023-04-17T15:45:10.823Z,39.73
2023-04-17T15:47:37.776Z,41.93
2023-04-17T15:50:05.009Z,48.93
2023-04-17T15:52:31.856Z,48.20
2023-04-17T15:54:58.678Z,47.33
2023-04-17T15:57:25.501Z,46.70
2023-04-17T15:59:52.339Z,53.67
2023-04-17T16:02:19.284Z,44.47
2023-04-17T16:04:46.204Z,50.17
2023-04-17T16:07:14.121Z,48.27
2023-04-17T16:09:41.622Z,52.33
2023-04-17T16:12:09.963Z,52.63
2023-04-17T16:14:37.313Z,51.37
2023-04-17T16:17:04.324Z,49.97
2023-04-17T16:19:32.580Z,56.30
2023-04-17T16:21:59.607Z,53.43
2023-04-17T16:24:26.833Z,64.30
2023-04-17T16:27:01.108Z,59.83
2023-04-17T16:29:28.065Z,54.37
2023-04-17T16:31:55.123Z,60.20
2023-04-17T16:34:22.222Z,57.90
2023-04-17T16:36:49.685Z,57.83
2023-04-17T16:39:16.579Z,54.33
2023-04-17T16:41:43.667Z,61.47
2023-04-17T16:44:10.730Z,59.03
2023-04-17T16:46:52.135Z,59.10
2023-04-17T16:49:24.517Z,58.40
2023-04-17T16:51:51.316Z,61.77
2023-04-17T16:54:19.432Z,57.67
2023-04-17T16:56:47.707Z,55.87
2023-04-17T16:59:14.841Z,51.70
2023-04-17T17:01:41.806Z,57.43
2023-04-17T17:04:08.699Z,54.90
2023-04-17T17:06:35.633Z,62.23
2023-04-17T17:09:02.443Z,52.33
2023-04-17T17:11:30.250Z,59.47
2023-04-17T17:13:57.849Z,57.60
2023-04-17T17:16:24.836Z,61.33
2023-04-17T17:18:52.060Z,63.50
2023-04-17T17:21:18.974Z,53.90
2023-04-17T17:23:45.889Z,56.63
2023-04-17T17:26:12.823Z,55.10
2023-04-17T17:28:39.699Z,56.43
2023-04-17T17:31:10.157Z,63.83
2023-04-17T17:33:37.006Z,50.97
2023-04-17T17:36:03.944Z,58.77
2023-04-17T17:38:32.587Z,52.53
2023-04-17T17:40:59.704Z,54.20
2023-04-17T17:43:29.598Z,60.30
2023-04-17T17:45:56.459Z,54.33
2023-04-17T17:48:23.289Z,53.20
2023-04-17T17:50:57.131Z,62.97
2023-04-17T17:53:26.276Z,61.87
2023-04-17T17:55:54.407Z,62.07
2023-04-17T17:58:21.858Z,58.07
2023-04-17T18:00:49.415Z,55.40
2023-04-17T18:03:16.802Z,60.07
2023-04-17T18:05:44.319Z,56.63
2023-04-17T18:08:11.122Z,50.87
2023-04-17T18:10:38.050Z,64.17
2023-04-17T18:13:05.110Z,56.93
2023-04-17T18:15:31.948Z,57.20
2023-04-17T18:17:58.790Z,59.50
2023-04-17T18:20:25.749Z,64.07
2023-04-17T18:22:52.571Z,66.77
2023-04-17T18:25:19.601Z,62.63
2023-04-17T18:27:46.463Z,68.13
2023-04-17T18:30:14.246Z,61.90
2023-04-17T18:32:41.065Z,63.57
2023-04-17T18:35:08.394Z,63.27
2023-04-17T18:37:35.312Z,65.47
2023-04-17T18:40:02.152Z,58.37
2023-04-17T18:42:29.007Z,65.47
2023-04-17T18:44:55.846Z,69.37
2023-04-17T18:47:22.816Z,69.77
2023-04-17T18:49:52.714Z,63.40
2023-04-17T18:52:19.730Z,69.83
2023-04-17T18:54:46.580Z,69.60
2023-04-17T18:57:13.424Z,69.87
2023-04-17T18:59:41.450Z,76.27
2023-04-17T19:02:10.131Z,72.63
2023-04-17T19:04:36.995Z,77.27
2023-04-17T19:07:03.836Z,72.10
2023-04-17T19:09:30.727Z,75.00
2023-04-17T19:11:58.648Z,74.27
2023-04-17T19:14:25.620Z,74.70
2023-04-17T19:16:53.333Z,83.13
2023-04-17T19:19:20.426Z,83.90
2023-04-17T19:21:47.574Z,81.43
2023-04-17T19:24:14.529Z,97.33
2023-04-17T19:26:41.653Z,92.37
2023-04-17T19:29:08.476Z,84.03
2023-04-17T19:31:35.401Z,83.47
2023-04-17T19:34:02.316Z,86.60
2023-04-17T19:36:29.243Z,89.27
2023-04-17T19:38:59.149Z,93.07
2023-04-17T19:41:27.309Z,82.47
2023-04-17T19:43:54.295Z,87.20
2023-04-17T19:46:21.969Z,96.37
2023-04-17T19:48:49.574Z,80.93
2023-04-17T19:51:16.827Z,88.03
2023-04-17T19:53:44.027Z,87.03
2023-04-17T19:56:11.298Z,96.67
2023-04-17T19:58:38.476Z,83.63
2023-04-17T20:01:35.462Z,94.30
2023-04-17T20:04:02.492Z,96.60
2023-04-17T20:06:29.362Z,95.57
2023-04-17T20:08:58.438Z,101.57
2023-04-17T20:11:25.356Z,96.77
2023-04-17T20:13:52.377Z,97.63
2023-04-17T20:16:19.366Z,95.57
2023-04-17T20:18:46.239Z,98.18
2023-04-17T20:21:13.342Z,95.90
2023-04-17T20:23:40.727Z,101.27
2023-04-17T20:26:08.298Z,91.47
2023-04-17T20:28:35.196Z,88.87
2023-04-17T20:31:03.394Z,97.10
2023-04-17T20:33:30.429Z,93.15
2023-04-17T20:36:03.810Z,101.25
2023-04-17T20:38:33.154Z,83.56
2023-04-17T20:41:00.040Z,91.20
2023-04-17T20:43:26.825Z,91.95
2023-04-17T20:45:59.414Z,94.08
2023-04-17T20:48:36.735Z,103.10
2023-04-17T20:51:05.629Z,100.75
2023-04-17T21:01:17.710Z,75.00
2023-04-17T21:24:42.502Z,92.63
2023-04-17T21:31:10.147Z,74.60
2023-04-17T21:54:25.355Z,88.07
2023-04-17T22:38:59.970Z,84.20
2023-04-17T23:07:31.591Z,67.93
2023-04-17T23:13:15.231Z,60.10
2023-04-17T23:35:13.361Z,58.45
2023-04-17T23:52:27.911Z,62.90
